createdAt,value
2018-11-06T00:01:13.364Z,80.68
2018-11-06T00:04:04.061Z,80.63
2018-11-06T00:06:37.259Z,80.56
2018-11-06T00:09:14.049Z,80.59
2018-11-06T00:11:48.058Z,80.61
2018-11-06T00:14:22.468Z,80.73
2018-11-06T00:16:56.776Z,80.75
2018-11-06T00:19:27.840Z,80.87
2018-11-06T00:22:01.577Z,80.91
2018-11-06T00:24:34.920Z,80.70
2018-11-06T00:27:08.940Z,80.65
2018-11-06T00:29:40.392Z,80.72
2018-11-06T00:32:14.973Z,80.79
2018-11-06T00:34:48.579Z,80.91
2018-11-06T00:37:22.947Z,80.90
2018-11-06T00:39:56.696Z,81.08
2018-11-06T00:42:30.479Z,81.07
2018-11-06T00:45:05.045Z,81.23
2018-11-06T00:47:39.037Z,81.41
2018-11-06T00:50:14.302Z,81.30
2018-11-06T00:52:47.967Z,81.19
2018-11-06T00:55:21.915Z,81.02
2018-11-06T00:57:56.591Z,80.85
2018-11-06T01:00:32.126Z,80.84
2018-11-06T01:03:05.522Z,80.92
2018-11-06T01:05:40.938Z,81.21
2018-11-06T01:08:14.902Z,81.36
2018-11-06T01:10:49.660Z,81.38
2018-11-06T01:13:23.458Z,81.46
2018-11-06T01:15:57.040Z,81.38
2018-11-06T01:18:33.618Z,81.34
2018-11-06T01:21:07.897Z,81.27
2018-11-06T01:23:44.187Z,81.23
2018-11-06T01:26:18.266Z,81.13
2018-11-06T01:28:52.650Z,81.05
2018-11-06T01:31:27.048Z,80.87
2018-11-06T01:34:00.740Z,80.75
2018-11-06T01:36:34.604Z,80.82
2018-11-06T01:39:13.211Z,80.74
2018-11-06T01:41:47.361Z,80.71
2018-11-06T01:46:54.472Z,80.53
2018-11-06T01:49:27.749Z,80.45
2018-11-06T01:52:01.609Z,80.34
2018-11-06T01:54:35.130Z,80.15
2018-11-06T01:57:08.231Z,80.16
2018-11-06T01:59:41.980Z,80.13
2018-11-06T02:02:16.273Z,80.07
2018-11-06T02:04:50.214Z,80.08
2018-11-06T02:07:25.415Z,79.94
2018-11-06T02:09:58.506Z,79.70
2018-11-06T02:12:32.257Z,79.65
2018-11-06T02:15:06.120Z,79.73
2018-11-06T02:17:41.210Z,79.67
2018-11-06T02:20:15.348Z,79.67
2018-11-06T02:22:49.113Z,79.78
2018-11-06T02:25:22.297Z,79.78
2018-11-06T02:27:56.178Z,79.62
2018-11-06T02:30:30.318Z,79.48
2018-11-06T02:33:02.539Z,79.42
2018-11-06T02:35:37.601Z,79.55
2018-11-06T02:38:11.240Z,79.62
2018-11-06T02:40:44.773Z,79.56
2018-11-06T02:43:16.661Z,79.42
2018-11-06T02:45:50.880Z,79.44
2018-11-06T02:48:23.649Z,79.36
2018-11-06T02:50:57.996Z,79.32
2018-11-06T02:53:35.564Z,79.36
2018-11-06T02:56:10.452Z,79.48
2018-11-06T02:58:44.984Z,79.56
2018-11-06T03:01:18.853Z,79.48
2018-11-06T03:03:52.490Z,79.55
2018-11-06T03:06:26.477Z,79.54
2018-11-06T03:09:00.252Z,79.49
2018-11-06T03:11:36.974Z,79.47
2018-11-06T03:14:09.934Z,79.33
2018-11-06T03:16:43.059Z,79.33
2018-11-06T03:19:14.308Z,79.32
2018-11-06T03:21:47.906Z,79.27
2018-11-06T03:24:22.738Z,79.35
2018-11-06T03:26:56.507Z,79.46
2018-11-06T03:29:29.950Z,79.65
2018-11-06T03:32:03.953Z,79.73
2018-11-06T03:34:37.043Z,79.78
2018-11-06T03:37:10.843Z,79.73
2018-11-06T03:39:45.035Z,79.82
2018-11-06T03:42:18.316Z,79.91
2018-11-06T03:44:51.986Z,79.91
2018-11-06T03:47:25.574Z,79.77
2018-11-06T03:49:59.342Z,79.62
2018-11-06T03:52:33.338Z,79.79
2018-11-06T03:55:07.541Z,80.08
2018-11-06T03:57:41.293Z,80.13
2018-11-06T04:00:18.932Z,80.07
2018-11-06T04:02:50.327Z,80.12
2018-11-06T04:05:22.259Z,80.12
2018-11-06T04:07:53.686Z,80.06
2018-11-06T04:10:24.730Z,79.98
2018-11-06T04:12:55.782Z,79.90
2018-11-06T04:15:26.954Z,79.86
2018-11-06T04:17:58.405Z,79.97
2018-11-06T04:20:29.783Z,80.11
2018-11-06T04:23:00.868Z,80.27
2018-11-06T04:25:31.931Z,80.31
2018-11-06T04:28:03.782Z,80.43
2018-11-06T04:30:34.905Z,80.64
2018-11-06T04:33:05.922Z,80.57
2018-11-06T04:35:37.303Z,80.37
2018-11-06T04:38:08.435Z,80.26
2018-11-06T04:40:39.657Z,80.07
2018-11-06T04:43:10.687Z,79.98
2018-11-06T04:45:41.750Z,80.34
2018-11-06T04:48:12.817Z,80.64
2018-11-06T04:50:44.295Z,80.54
2018-11-06T04:53:15.348Z,80.67
2018-11-06T04:55:46.404Z,80.65
2018-11-06T04:58:17.750Z,80.75
2018-11-06T05:00:49.120Z,80.78
2018-11-06T05:03:20.171Z,80.76
2018-11-06T05:05:51.657Z,80.77
2018-11-06T05:08:23.272Z,80.83
2018-11-06T05:10:54.358Z,80.84
2018-11-06T05:13:25.424Z,80.75
2018-11-06T05:15:56.521Z,80.61
2018-11-06T05:18:27.742Z,80.58
2018-11-06T05:20:58.881Z,80.87
2018-11-06T05:23:31.189Z,80.87
2018-11-06T05:26:02.292Z,80.91
2018-11-06T05:28:33.382Z,80.87
2018-11-06T05:31:04.961Z,80.84
2018-11-06T05:33:35.994Z,80.73
2018-11-06T05:36:07.292Z,80.64
2018-11-06T05:38:38.624Z,80.52
2018-11-06T05:41:10.139Z,80.59
2018-11-06T05:43:41.179Z,80.74
2018-11-06T05:46:12.262Z,80.78
2018-11-06T05:48:43.348Z,81.29
2018-11-06T05:51:14.551Z,81.46
2018-11-06T05:53:47.842Z,81.59
2018-11-06T05:56:18.887Z,81.69
2018-11-06T05:58:50.258Z,81.74
2018-11-06T06:01:22.241Z,81.71
2018-11-06T06:03:53.540Z,81.79
2018-11-06T06:06:24.533Z,81.94
2018-11-06T06:08:57.863Z,81.93
2018-11-06T06:11:29.202Z,82.04
2018-11-06T06:14:00.197Z,82.03
2018-11-06T06:16:32.335Z,82.03
2018-11-06T06:19:03.362Z,81.86
2018-11-06T06:21:34.530Z,81.75
2018-11-06T06:24:06.185Z,81.67
2018-11-06T06:26:37.431Z,81.61
2018-11-06T06:29:08.612Z,81.50
2018-11-06T06:31:39.761Z,81.57
2018-11-06T06:34:10.897Z,81.61
2018-11-06T06:36:41.944Z,81.58
2018-11-06T06:39:13.035Z,81.66
2018-11-06T06:41:44.083Z,82.07
2018-11-06T06:44:15.370Z,82.16
2018-11-06T06:46:46.459Z,82.10
2018-11-06T06:49:17.814Z,81.97
2018-11-06T06:51:49.326Z,81.78
2018-11-06T06:54:20.566Z,81.85
2018-11-06T06:56:51.552Z,82.18
2018-11-06T06:59:23.660Z,82.42
2018-11-06T07:01:54.641Z,82.51
2018-11-06T07:04:28.200Z,82.45
2018-11-06T07:07:01.624Z,82.42
2018-11-06T07:09:35.542Z,82.33
2018-11-06T07:12:07.993Z,82.60
2018-11-06T07:14:41.506Z,83.07
2018-11-06T07:17:16.072Z,83.23
2018-11-06T07:19:47.099Z,83.12
2018-11-06T07:22:21.611Z,82.98
2018-11-06T07:24:56.109Z,82.77
2018-11-06T07:27:33.715Z,82.63
2018-11-06T07:30:08.853Z,82.69
2018-11-06T07:32:42.764Z,82.64
2018-11-06T07:35:26.435Z,82.54
2018-11-06T07:38:22.064Z,82.44
2018-11-06T07:41:08.395Z,82.61
2018-11-06T07:43:44.258Z,82.90
2018-11-06T07:46:17.863Z,83.09
2018-11-06T07:48:51.998Z,83.14
2018-11-06T07:51:27.263Z,83.10
2018-11-06T07:54:01.071Z,83.07
2018-11-06T07:56:34.501Z,82.95
2018-11-06T07:59:09.066Z,82.75
2018-11-06T08:01:42.533Z,82.68
2018-11-06T08:04:16.747Z,83.00
2018-11-06T08:06:50.722Z,83.24
2018-11-06T08:09:24.078Z,83.36
2018-11-06T08:11:58.384Z,83.41
2018-11-06T08:14:33.295Z,83.32
2018-11-06T08:17:07.106Z,83.18
2018-11-06T08:19:43.895Z,83.05
2018-11-06T08:22:19.162Z,83.18
2018-11-06T08:24:59.262Z,83.06
2018-11-06T08:27:33.304Z,83.01
2018-11-06T08:30:07.996Z,82.88
2018-11-06T08:32:41.693Z,82.70
2018-11-06T08:35:19.533Z,82.50
2018-11-06T08:37:56.891Z,82.34
2018-11-06T08:40:31.440Z,82.03
2018-11-06T08:43:07.441Z,81.75
2018-11-06T08:45:42.479Z,81.47
2018-11-06T08:48:16.892Z,81.39
2018-11-06T08:50:52.520Z,81.10
2018-11-06T08:53:26.747Z,80.57
2018-11-06T08:55:58.179Z,80.11
2018-11-06T08:58:29.299Z,79.75
2018-11-06T09:01:00.360Z,79.41
2018-11-06T09:03:31.755Z,79.25
2018-11-06T09:06:02.835Z,78.83
2018-11-06T09:08:34.038Z,78.70
2018-11-06T09:11:05.406Z,78.49
2018-11-06T09:13:36.459Z,78.12
2018-11-06T09:16:08.088Z,77.82
2018-11-06T09:18:39.694Z,77.57
2018-11-06T09:21:11.168Z,77.28
2018-11-06T09:23:46.701Z,76.89
2018-11-06T09:26:20.329Z,76.52
2018-11-06T09:28:51.695Z,76.16
2018-11-06T09:31:26.694Z,76.07
2018-11-06T09:33:58.068Z,76.07
2018-11-06T09:36:29.680Z,75.78
2018-11-06T09:39:00.773Z,74.74
2018-11-06T09:41:32.557Z,74.37
2018-11-06T09:44:03.827Z,74.32
2018-11-06T09:46:35.153Z,74.44
2018-11-06T09:49:14.361Z,74.41
2018-11-06T09:51:43.378Z,74.50
2018-11-06T09:54:20.820Z,74.51
2018-11-06T09:56:51.821Z,74.61
2018-11-06T09:59:26.568Z,74.71
2018-11-06T10:01:57.747Z,74.62
2018-11-06T10:04:29.046Z,74.59
2018-11-06T10:07:00.542Z,74.29
2018-11-06T10:09:31.246Z,74.04
2018-11-06T10:12:04.792Z,73.85
2018-11-06T10:14:36.291Z,73.83
2018-11-06T10:17:07.570Z,73.80
2018-11-06T10:19:38.992Z,73.86
2018-11-06T10:22:10.104Z,73.92
2018-11-06T10:24:41.212Z,73.86
2018-11-06T10:27:12.705Z,73.73
2018-11-06T10:29:44.065Z,73.49
2018-11-06T10:32:15.132Z,73.37
2018-11-06T10:34:46.215Z,73.19
2018-11-06T10:37:17.756Z,72.88
2018-11-06T10:39:49.008Z,72.31
2018-11-06T10:42:21.297Z,71.82
2018-11-06T10:44:52.836Z,71.97
2018-11-06T10:47:24.267Z,72.16
2018-11-06T10:49:55.366Z,72.08
2018-11-06T10:52:26.631Z,71.98
2018-11-06T10:54:57.814Z,71.87
2018-11-06T10:57:28.959Z,71.48
2018-11-06T11:00:00.397Z,70.83
2018-11-06T11:02:49.390Z,70.72
2018-11-06T11:05:21.445Z,70.34
2018-11-06T11:07:52.509Z,69.92
2018-11-06T11:10:24.382Z,69.34
2018-11-06T11:12:55.450Z,68.84
2018-11-06T11:15:30.237Z,68.38
2018-11-06T11:18:01.752Z,68.39
2018-11-06T11:20:33.084Z,67.87
2018-11-06T11:23:04.337Z,67.89
2018-11-06T11:25:36.105Z,68.17
2018-11-06T11:28:07.375Z,68.36
2018-11-06T11:30:38.423Z,68.40
2018-11-06T11:33:09.928Z,67.98
2018-11-06T11:35:41.152Z,67.78
2018-11-06T11:38:12.649Z,67.80
2018-11-06T11:40:44.211Z,67.49
2018-11-06T11:43:15.285Z,67.30
2018-11-06T11:45:46.375Z,67.11
2018-11-06T11:48:19.699Z,67.08
2018-11-06T11:50:50.802Z,67.12
2018-11-06T11:53:22.251Z,67.15
2018-11-06T11:55:53.343Z,66.92
2018-11-06T11:58:26.144Z,66.85
2018-11-06T12:00:58.097Z,66.65
2018-11-06T12:03:29.772Z,66.67
2018-11-06T12:06:01.761Z,66.91
2018-11-06T12:08:33.860Z,67.17
2018-11-06T12:11:09.694Z,67.21
2018-11-06T12:13:41.118Z,67.41
2018-11-06T12:16:12.531Z,67.14
2018-11-06T12:18:43.853Z,67.26
2018-11-06T12:21:19.279Z,67.18
2018-11-06T12:23:51.084Z,66.96
2018-11-06T12:26:23.527Z,67.01
2018-11-06T12:28:55.786Z,67.20
2018-11-06T12:31:28.297Z,67.09
2018-11-06T12:34:02.494Z,66.68
2018-11-06T12:36:38.982Z,66.25
2018-11-06T12:39:11.724Z,66.30
2018-11-06T12:41:45.111Z,66.22
2018-11-06T12:44:18.493Z,66.21
2018-11-06T12:46:49.595Z,66.09
2018-11-06T12:49:20.698Z,66.19
2018-11-06T12:51:52.214Z,66.40
2018-11-06T12:54:23.341Z,66.58
2018-11-06T12:56:56.291Z,66.06
2018-11-06T12:59:32.261Z,65.77
2018-11-06T13:02:03.685Z,65.51
2018-11-06T13:04:34.866Z,65.64
2018-11-06T13:07:09.546Z,65.49
2018-11-06T13:09:40.511Z,65.51
2018-11-06T13:12:11.607Z,65.65
2018-11-06T13:14:44.044Z,65.35
2018-11-06T13:17:16.670Z,64.81
2018-11-06T13:19:47.780Z,64.80
2018-11-06T13:22:25.892Z,64.94
2018-11-06T13:24:56.957Z,64.79
2018-11-06T13:27:34.255Z,64.46
2018-11-06T13:30:07.207Z,64.57
2018-11-06T13:32:43.925Z,64.45
2018-11-06T13:35:16.298Z,64.30
2018-11-06T13:37:48.163Z,64.24
2018-11-06T13:40:21.029Z,64.13
2018-11-06T13:42:53.914Z,64.24
2018-11-06T13:45:26.683Z,63.95
2018-11-06T13:47:59.031Z,64.14
2018-11-06T13:50:30.925Z,64.35
2018-11-06T13:53:10.565Z,64.24
2018-11-06T13:55:45.022Z,63.97
2018-11-06T13:58:18.895Z,63.29
2018-11-06T14:00:51.501Z,63.11
2018-11-06T14:03:28.762Z,62.94
2018-11-06T14:06:02.333Z,63.08
2018-11-06T14:08:34.099Z,62.80
2018-11-06T14:11:05.851Z,62.77
2018-11-06T14:13:36.935Z,62.72
2018-11-06T14:16:08.629Z,62.56
2018-11-06T14:18:40.435Z,62.51
2018-11-06T14:21:11.610Z,62.37
2018-11-06T14:23:42.789Z,62.24
2018-11-06T14:26:18.614Z,62.38
2018-11-06T14:28:49.703Z,62.43
2018-11-06T14:31:23.432Z,62.60
2018-11-06T14:33:54.594Z,62.85
2018-11-06T14:36:28.255Z,62.86
2018-11-06T14:38:59.328Z,63.02
2018-11-06T14:41:36.814Z,63.09
2018-11-06T14:44:08.413Z,63.17
2018-11-06T14:46:39.883Z,63.38
2018-11-06T14:49:10.985Z,63.61
2018-11-06T14:51:42.014Z,63.83
2018-11-06T14:54:13.074Z,64.03
2018-11-06T14:56:45.953Z,64.42
2018-11-06T14:59:19.083Z,64.56
2018-11-06T15:01:51.254Z,64.90
2018-11-06T15:04:23.075Z,65.10
2018-11-06T15:06:56.034Z,65.46
2018-11-06T15:09:31.974Z,65.62
2018-11-06T15:12:03.132Z,65.87
2018-11-06T15:14:34.175Z,66.17
2018-11-06T15:17:05.733Z,66.41
2018-11-06T15:19:39.904Z,66.62
2018-11-06T15:22:10.967Z,66.89
2018-11-06T15:24:42.101Z,67.26
2018-11-06T15:27:13.132Z,67.52
2018-11-06T15:29:44.666Z,68.05
2018-11-06T15:32:16.109Z,68.40
2018-11-06T15:34:51.233Z,68.90
2018-11-06T15:37:22.324Z,69.14
2018-11-06T15:39:53.405Z,69.43
2018-11-06T15:42:24.475Z,69.51
2018-11-06T15:44:55.613Z,69.55
2018-11-06T15:47:26.782Z,69.63
2018-11-06T15:49:58.877Z,69.91
2018-11-06T15:52:31.365Z,70.22
2018-11-06T15:55:06.885Z,70.22
2018-11-06T15:57:38.771Z,70.23
2018-11-06T16:00:31.791Z,70.59
2018-11-06T16:03:05.237Z,70.95
2018-11-06T16:05:36.376Z,71.25
2018-11-06T16:08:10.462Z,71.44
2018-11-06T16:10:41.321Z,71.57
2018-11-06T16:13:16.899Z,71.65
2018-11-06T16:15:47.933Z,71.78
2018-11-06T16:18:19.084Z,72.04
2018-11-06T16:20:50.221Z,72.15
2018-11-06T16:23:22.491Z,72.15
2018-11-06T16:26:02.151Z,72.27
2018-11-06T16:28:33.236Z,72.34
2018-11-06T16:31:07.277Z,72.13
2018-11-06T16:33:38.301Z,72.10
2018-11-06T16:36:09.458Z,72.13
2018-11-06T16:38:40.509Z,72.12
2018-11-06T16:41:12.654Z,72.17
2018-11-06T16:43:43.803Z,72.23
2018-11-06T16:46:14.887Z,72.21
2018-11-06T16:48:50.977Z,72.18
2018-11-06T16:51:22.940Z,72.19
2018-11-06T16:53:53.996Z,72.10
2018-11-06T16:56:25.071Z,72.21
2018-11-06T16:58:56.477Z,72.52
2018-11-06T17:01:27.869Z,72.78
2018-11-06T17:03:58.997Z,72.92
2018-11-06T17:06:36.028Z,72.98
2018-11-06T17:09:09.908Z,72.91
2018-11-06T17:11:41.129Z,72.99
2018-11-06T17:14:12.239Z,73.16
2018-11-06T17:16:43.305Z,73.13
2018-11-06T17:19:14.624Z,72.99
2018-11-06T17:21:46.015Z,72.89
2018-11-06T17:24:18.173Z,72.95
2018-11-06T17:26:49.189Z,73.03
2018-11-06T17:29:20.212Z,73.05
2018-11-06T17:31:57.737Z,73.17
2018-11-06T17:34:31.674Z,73.33
2018-11-06T17:37:06.451Z,73.63
2018-11-06T17:39:39.936Z,73.85
2018-11-06T17:42:14.715Z,73.95
2018-11-06T17:44:47.237Z,74.20
2018-11-06T17:47:19.440Z,74.45
2018-11-06T17:49:53.025Z,74.62
2018-11-06T17:52:25.833Z,74.69
2018-11-06T17:55:01.073Z,74.65
2018-11-06T17:57:32.034Z,74.42
2018-11-06T18:00:03.129Z,74.39
2018-11-06T18:02:34.228Z,74.52
2018-11-06T18:05:07.973Z,74.76
2018-11-06T18:07:39.630Z,74.92
2018-11-06T18:10:13.271Z,74.98
2018-11-06T18:12:44.599Z,75.22
2018-11-06T18:15:15.718Z,75.77
2018-11-06T18:17:47.327Z,76.20
2018-11-06T18:20:18.619Z,76.03
2018-11-06T18:22:49.699Z,75.79
2018-11-06T18:25:20.934Z,75.61
2018-11-06T18:27:51.898Z,75.44
2018-11-06T18:30:23.283Z,75.59
2018-11-06T18:32:54.391Z,75.52
2018-11-06T18:35:25.471Z,75.38
2018-11-06T18:37:56.527Z,75.43
2018-11-06T18:40:27.571Z,75.93
2018-11-06T18:42:58.649Z,75.91
2018-11-06T18:45:30.152Z,75.78
2018-11-06T18:48:01.216Z,75.80
2018-11-06T18:50:32.533Z,75.83
2018-11-06T18:53:03.580Z,76.14
2018-11-06T18:55:36.992Z,76.38
2018-11-06T18:58:08.337Z,76.45
2018-11-06T19:00:39.366Z,76.64
2018-11-06T19:03:10.560Z,76.71
2018-11-06T19:05:41.979Z,76.87
2018-11-06T19:08:13.421Z,76.97
2018-11-06T19:10:44.855Z,76.87
2018-11-06T19:13:15.881Z,76.85
2018-11-06T19:15:47.394Z,76.78
2018-11-06T19:18:19.385Z,76.69
2018-11-06T19:20:50.567Z,76.65
2018-11-06T19:23:24.202Z,76.53
2018-11-06T19:25:55.509Z,76.22
2018-11-06T19:28:29.077Z,74.91
2018-11-06T19:31:03.448Z,73.70
2018-11-06T19:33:34.559Z,72.39
2018-11-06T19:36:06.075Z,71.58
2018-11-06T19:38:37.174Z,70.30
2018-11-06T19:41:08.871Z,69.39
2018-11-06T19:43:42.262Z,68.89
2018-11-06T19:46:13.990Z,67.74
2018-11-06T19:48:45.329Z,67.47
2018-11-06T19:51:17.355Z,67.34
2018-11-06T19:53:48.577Z,66.76
2018-11-06T19:56:19.770Z,66.40
2018-11-06T19:58:51.191Z,66.01
2018-11-06T20:01:22.512Z,66.07
2018-11-06T20:03:53.672Z,65.75
2018-11-06T20:06:24.801Z,65.66
2018-11-06T20:09:03.067Z,65.44
2018-11-06T20:11:35.737Z,65.04
2018-11-06T20:14:06.736Z,65.21
2018-11-06T20:16:38.145Z,65.08
2018-11-06T20:19:09.645Z,65.22
2018-11-06T20:21:41.085Z,65.38
2018-11-06T20:24:12.809Z,65.47
2018-11-06T20:26:43.856Z,65.60
2018-11-06T20:29:15.709Z,65.76
2018-11-06T20:31:53.075Z,65.87
2018-11-06T20:34:24.089Z,65.73
2018-11-06T20:36:55.167Z,65.84
2018-11-06T20:39:26.409Z,66.01
2018-11-06T20:41:57.491Z,66.00
2018-11-06T20:44:31.020Z,65.94
2018-11-06T20:47:07.158Z,65.87
2018-11-06T20:49:38.288Z,65.84
2018-11-06T20:52:09.526Z,66.01
2018-11-06T20:55:02.620Z,65.98
2018-11-06T20:57:35.161Z,66.12
2018-11-06T21:00:10.685Z,66.33
2018-11-06T21:02:42.477Z,66.21
2018-11-06T21:05:22.579Z,66.02
2018-11-06T21:07:56.014Z,65.98
2018-11-06T21:10:30.089Z,66.01
2018-11-06T21:13:02.473Z,66.08
2018-11-06T21:15:33.908Z,66.36
2018-11-06T21:18:05.219Z,66.50
2018-11-06T21:20:36.098Z,66.84
2018-11-06T21:23:09.776Z,66.98
2018-11-06T21:25:43.408Z,67.15
2018-11-06T21:28:21.262Z,67.06
2018-11-06T21:30:54.163Z,67.03
2018-11-06T21:33:25.265Z,67.24
2018-11-06T21:35:56.710Z,67.54
2018-11-06T21:38:28.135Z,67.78
2018-11-06T21:40:59.221Z,67.95
2018-11-06T21:43:30.389Z,68.10
2018-11-06T21:46:01.820Z,68.17
2018-11-06T21:48:33.331Z,68.28
2018-11-06T21:51:04.915Z,68.29
2018-11-06T21:53:36.377Z,68.27
2018-11-06T21:56:07.564Z,68.30
2018-11-06T21:58:38.676Z,68.36
2018-11-06T22:01:10.257Z,68.32
2018-11-06T22:03:41.724Z,68.26
2018-11-06T22:06:15.379Z,68.48
2018-11-06T22:08:46.427Z,68.43
2018-11-06T22:11:20.088Z,68.46
2018-11-06T22:13:52.810Z,68.45
2018-11-06T22:16:24.582Z,68.40
2018-11-06T22:18:57.435Z,68.32
2018-11-06T22:21:28.992Z,68.34
2018-11-06T22:24:00.125Z,68.38
2018-11-06T22:26:31.549Z,68.43
2018-11-06T22:29:21.448Z,68.34
2018-11-06T22:31:56.475Z,68.29
2018-11-06T22:34:27.750Z,68.31
2018-11-06T22:37:00.393Z,68.52
2018-11-06T22:39:31.576Z,68.59
2018-11-06T22:42:02.680Z,68.59
2018-11-06T22:44:36.210Z,68.72
2018-11-06T22:47:08.136Z,68.78
2018-11-06T22:49:42.285Z,68.78
2018-11-06T22:52:13.461Z,68.79
2018-11-06T22:54:44.578Z,68.84
2018-11-06T22:57:15.963Z,68.93
2018-11-06T22:59:47.272Z,68.95
2018-11-06T23:02:18.752Z,68.96
2018-11-06T23:04:49.846Z,68.98
2018-11-06T23:07:38.700Z,68.99
2018-11-06T23:10:09.850Z,69.12
2018-11-06T23:12:41.136Z,69.20
2018-11-06T23:15:12.163Z,69.29
2018-11-06T23:17:43.643Z,69.29
2018-11-06T23:20:15.176Z,69.29
2018-11-06T23:22:46.237Z,69.37
2018-11-06T23:25:19.011Z,69.35
2018-11-06T23:27:50.118Z,69.45
2018-11-06T23:30:22.554Z,69.55
2018-11-06T23:32:52.248Z,69.67
2018-11-06T23:35:23.366Z,69.67
2018-11-06T23:37:54.404Z,69.73
2018-11-06T23:40:25.491Z,69.71
2018-11-06T23:42:56.924Z,69.72
2018-11-06T23:45:27.991Z,69.70
2018-11-06T23:47:59.096Z,69.98
2018-11-06T23:50:30.482Z,69.97
2018-11-06T23:53:01.571Z,70.11
2018-11-06T23:55:32.615Z,70.34
2018-11-06T23:58:06.069Z,70.64
